EGDM - Boscombe Down
Distance from station: E 5mi, 14km
Updated: 07/19/2018 6:50pm
Mostly Cloudy
Mostly Cloudy
 Wind from WNW
Wind: WNW 6 mph , 9 km/h
Temperature: 59°F , 15°C
Dew Point: 54°F , 12°C
Humidity: 82%
Barometer: 30 inHg , 1016 hPa
Clouds: Mostly Cloudy
Visibility: 6 miles , 10 km
Cloud details: Mostly Cloudy 6000 ft
2018/07/20 01:50 EGDM 200150Z AUTO 30005KT 9999 BKN060/// 15/12 Q1016